Time;durP1;ratioP1;P1;durP2;ratioP2;P2;SDS_P1;SDS_P2;PMS_P1;PMS_P2;Temp;Humidity;BMP_temperature;BMP_pressure;BME280_temperature;BME280_humidity;BME280_pressure;Samples;Min_cycle;Max_cycle;Signal;HPM_P1;HPM_P2
2021/04/29 00:03:04;;;;;;;12.15;11.05;;;;;;;13.43;77.57;98759.75;10339423;23;20112;-66
2021/04/29 00:08:05;;;;;;;14.10;12.75;;;;;;;13.39;77.63;98754.94;10316851;28;20778;-65
2021/04/29 00:13:06;;;;;;;13.52;12.23;;;;;;;13.58;77.07;98772.34;10260484;28;20067;-65
2021/04/29 00:18:08;;;;;;;14.25;12.98;;;;;;;13.39;77.27;98761.13;10255556;28;20055;-65
2021/04/29 00:23:10;;;;;;;13.02;11.80;;;;;;;13.35;77.71;98770.50;10261349;28;20058;-65
2021/04/29 00:28:11;;;;;;;12.98;11.88;;;;;;;13.13;77.57;98771.31;10252226;28;20055;-63
2021/04/29 00:33:13;;;;;;;13.63;12.32;;;;;;;13.06;79.27;98766.66;10257053;28;20055;-64
2021/04/29 00:38:16;;;;;;;12.75;11.65;;;;;;;13.04;78.81;98768.66;10256535;28;20058;-62
2021/04/29 00:43:16;;;;;;;10.43;9.52;;;;;;;13.03;78.83;98777.69;10264099;28;20125;-65
2021/04/29 00:48:18;;;;;;;10.13;9.23;;;;;;;12.75;79.11;98769.31;10262898;28;20165;-64
2021/04/29 00:53:19;;;;;;;9.63;8.82;;;;;;;12.95;79.25;98784.91;10268079;28;20082;-69
2021/04/29 00:58:20;;;;;;;9.38;8.25;;;;;;;12.80;79.09;98787.50;10256070;28;20063;-64
2021/04/29 01:03:32;;;;;;;8.82;7.93;;;;;;;12.68;79.77;98789.72;10262029;28;20055;-67
2021/04/29 01:08:45;;;;;;;7.60;7.00;;;;;;;12.66;78.68;98781.88;10253901;28;20445;-63
2021/04/29 01:13:55;;;;;;;9.32;8.52;;;;;;;12.77;79.51;98790.50;10256371;28;20102;-63
2021/04/29 01:18:58;;;;;;;8.30;7.60;;;;;;;12.65;78.54;98780.19;10259262;28;20053;-64
2021/04/29 01:24:13;;;;;;;7.90;7.20;;;;;;;12.68;77.83;98797.72;10248403;28;20047;-63
2021/04/29 01:29:21;;;;;;;8.00;7.30;;;;;;;12.52;78.76;98796.78;10246605;28;20042;-65
2021/04/29 01:34:25;;;;;;;6.88;6.28;;;;;;;12.50;77.67;98795.28;10256054;28;20051;-64
2021/04/29 01:39:27;;;;;;;7.13;6.45;;;;;;;12.48;78.00;98805.31;10245275;28;20124;-65
2021/04/29 01:44:29;;;;;;;6.38;5.88;;;;;;;12.62;76.81;98812.56;10250598;28;21902;-65
2021/04/29 01:49:30;;;;;;;7.80;7.10;;;;;;;12.69;77.11;98812.75;10264189;28;20134;-62
2021/04/29 01:54:31;;;;;;;6.15;5.55;;;;;;;12.72;75.20;98813.22;10256920;28;20046;-64
2021/04/29 01:59:32;;;;;;;6.95;6.03;;;;;;;12.57;76.89;98817.63;10247003;28;20051;-67
2021/04/29 02:04:33;;;;;;;6.85;5.65;;;;;;;12.72;75.84;98818.56;10250081;28;20042;-66
2021/04/29 02:09:34;;;;;;;6.80;6.20;;;;;;;12.76;76.83;98818.22;10257332;28;20066;-64
2021/04/29 02:14:51;;;;;;;7.80;7.15;;;;;;;12.71;76.12;98816.88;10257120;28;20090;-63
2021/04/29 02:19:55;;;;;;;8.23;7.53;;;;;;;12.54;77.15;98820.63;10257134;28;20054;-64
2021/04/29 02:24:58;;;;;;;8.80;7.90;;;;;;;12.44;78.25;98819.97;10262743;28;20427;-63
2021/04/29 02:29:59;;;;;;;9.50;7.38;;;;;;;12.49;76.42;98822.97;10262470;28;20106;-64
2021/04/29 02:35:04;;;;;;;8.43;7.63;;;;;;;12.38;77.80;98824.16;10259844;28;20115;-63
2021/04/29 02:40:08;;;;;;;8.82;7.90;;;;;;;12.33;77.52;98816.66;10259084;28;20050;-63
2021/04/29 02:45:11;;;;;;;8.93;7.60;;;;;;;12.51;78.23;98812.97;10259040;28;20054;-65
2021/04/29 02:50:16;;;;;;;11.10;8.60;;;;;;;12.54;77.08;98815.28;10262823;28;20070;-62
2021/04/29 02:55:18;;;;;;;8.30;7.50;;;;;;;12.60;77.55;98825.28;10253818;28;20051;-63
2021/04/29 03:00:19;;;;;;;8.27;7.47;;;;;;;12.44;78.26;98841.31;10264853;28;20098;-65
2021/04/29 03:05:20;;;;;;;7.38;6.75;;;;;;;12.40;78.16;98840.00;10256630;28;20054;-64
2021/04/29 03:10:22;;;;;;;7.68;6.93;;;;;;;12.24;78.96;98843.53;10273267;28;20058;-63
2021/04/29 03:15:23;;;;;;;7.78;7.07;;;;;;;12.12;79.53;98843.06;10265084;28;20050;-62
2021/04/29 03:20:24;;;;;;;7.90;7.10;;;;;;;12.10;79.82;98842.38;10252700;28;20050;-63
2021/04/29 03:25:25;;;;;;;7.63;6.93;;;;;;;12.05;80.04;98847.38;10258287;28;20105;-64
2021/04/29 03:30:26;;;;;;;7.25;6.55;;;;;;;12.06;79.14;98843.72;10251385;28;20136;-65
2021/04/29 03:35:27;;;;;;;8.15;7.35;;;;;;;11.85;79.70;98832.50;10259430;28;20617;-64
2021/04/29 03:40:28;;;;;;;10.50;7.28;;;;;;;12.07;78.33;98856.03;10252887;28;20066;-62
2021/04/29 03:45:30;;;;;;;7.57;6.88;;;;;;;12.02;78.97;98857.41;10260657;28;20050;-63
2021/04/29 03:50:31;;;;;;;8.10;7.30;;;;;;;11.89;79.82;98850.84;10264601;28;20066;-64
2021/04/29 03:55:32;;;;;;;9.32;8.20;;;;;;;11.80;79.52;98855.31;10268090;28;20113;-63
2021/04/29 04:00:33;;;;;;;9.57;7.55;;;;;;;11.78;79.65;98857.34;10257322;28;20098;-69
2021/04/29 04:05:34;;;;;;;8.50;7.70;;;;;;;11.67;80.44;98851.31;10257748;28;20157;-65
2021/04/29 04:10:34;;;;;;;8.80;8.05;;;;;;;11.67;81.57;98855.84;10259502;28;20137;-64
2021/04/29 04:15:35;;;;;;;9.30;8.07;;;;;;;11.78;80.33;98857.34;10261867;28;20548;-65
2021/04/29 04:20:38;;;;;;;10.57;9.55;;;;;;;11.64;80.87;98866.81;10265432;28;20133;-63
2021/04/29 04:25:39;;;;;;;10.07;8.35;;;;;;;11.77;80.42;98874.31;10265189;28;20167;-64
2021/04/29 04:30:40;;;;;;;8.82;8.02;;;;;;;11.79;80.76;98875.00;10269918;28;20075;-63
2021/04/29 04:35:41;;;;;;;10.60;8.82;;;;;;;11.70;81.38;98886.66;10263997;28;20194;-64
2021/04/29 04:40:43;;;;;;;9.75;8.75;;;;;;;11.77;81.10;98899.16;10259653;28;20137;-63
2021/04/29 04:45:44;;;;;;;9.00;8.18;;;;;;;11.72;81.62;98887.31;10270393;28;20591;-65
2021/04/29 04:50:45;;;;;;;11.68;10.57;;;;;;;11.67;81.31;98896.63;10261516;28;20054;-64
2021/04/29 04:55:48;;;;;;;12.32;11.13;;;;;;;11.52;82.60;98905.44;10256975;28;20053;-64
2021/04/29 05:00:49;;;;;;;11.23;10.23;;;;;;;11.58;82.18;98904.78;10258964;28;20134;-61
2021/04/29 05:05:50;;;;;;;13.02;11.77;;;;;;;11.73;81.90;98913.00;10269611;28;20049;-61
2021/04/29 05:10:51;;;;;;;12.65;11.45;;;;;;;11.81;81.42;98905.00;10229341;28;20145;-62
2021/04/29 05:15:52;;;;;;;12.93;11.70;;;;;;;11.88;81.21;98911.34;10259143;28;20421;-62
2021/04/29 05:20:53;;;;;;;14.45;12.00;;;;;;;11.82;81.97;98907.50;10251761;28;20046;-63
2021/04/29 05:25:54;;;;;;;13.93;12.55;;;;;;;11.89;81.25;98905.03;10270577;28;20469;-62
2021/04/29 05:30:55;;;;;;;14.07;12.02;;;;;;;11.88;80.86;98908.66;10254847;28;20098;-62
2021/04/29 05:35:56;;;;;;;14.75;12.05;;;;;;;12.11;80.23;98913.38;10263155;28;20413;-62
2021/04/29 05:40:57;;;;;;;13.27;11.98;;;;;;;12.23;78.85;98904.03;10271107;28;20056;-64
2021/04/29 05:45:58;;;;;;;11.73;10.63;;;;;;;12.38;78.71;98913.06;10246648;28;20289;-62
2021/04/29 05:50:59;;;;;;;12.77;11.48;;;;;;;12.25;77.53;98915.41;10255436;28;20141;-62
2021/04/29 05:56:00;;;;;;;12.30;11.10;;;;;;;12.28;78.05;98920.41;10252239;28;20104;-64
2021/04/29 06:01:02;;;;;;;12.35;11.10;;;;;;;12.32;77.94;98924.38;10254437;28;20070;-62
2021/04/29 06:06:04;;;;;;;11.48;10.38;;;;;;;12.34;76.75;98927.75;10278917;23;20355;-57
2021/04/29 06:11:05;;;;;;;11.88;10.70;;;;;;;12.31;76.69;98936.06;10307991;28;20054;-55
2021/04/29 06:16:06;;;;;;;12.25;10.98;;;;;;;12.36;76.34;98931.06;10291318;28;20050;-60
2021/04/29 06:21:07;;;;;;;12.30;10.98;;;;;;;12.42;76.44;98950.09;10301373;28;22651;-54
2021/04/29 06:26:08;;;;;;;12.40;11.15;;;;;;;12.51;76.27;98954.41;10285854;28;20055;-60
2021/04/29 06:31:09;;;;;;;13.48;12.07;;;;;;;12.39;76.76;98953.91;10299972;28;20125;-58
2021/04/29 06:36:10;;;;;;;13.82;11.88;;;;;;;12.43;76.31;98951.72;10293741;28;20563;-56
2021/04/29 06:41:11;;;;;;;12.73;11.43;;;;;;;12.42;76.62;98950.09;10291620;28;20058;-56
2021/04/29 06:46:12;;;;;;;13.18;11.38;;;;;;;12.30;76.84;98939.75;10300946;28;20423;-57
2021/04/29 06:51:14;;;;;;;12.70;11.10;;;;;;;12.47;76.59;98953.06;10303128;28;20054;-58
2021/04/29 06:56:35;;;;;;;12.35;11.25;;;;;;;12.80;76.01;98972.56;10279606;28;20101;-58
2021/04/29 07:01:36;;;;;;;13.60;11.70;;;;;;;13.08;74.39;98973.00;10300761;28;20054;-54
2021/04/29 07:06:38;;;;;;;12.43;11.13;;;;;;;13.14;73.86;98979.50;10307807;28;20056;-55
2021/04/29 07:11:39;;;;;;;12.20;10.98;;;;;;;13.18;73.84;98975.50;10292180;28;20058;-55
2021/04/29 07:16:43;;;;;;;12.20;10.90;;;;;;;13.67;72.70;98981.69;10288225;28;20065;-56
2021/04/29 07:21:44;;;;;;;11.38;9.82;;;;;;;13.81;70.80;98975.59;10297584;28;20053;-60
2021/04/29 07:26:45;;;;;;;10.02;9.02;;;;;;;13.69;68.75;98976.97;10289098;28;20097;-54
2021/04/29 07:31:46;;;;;;;9.50;8.60;;;;;;;13.86;67.67;98961.69;10289267;28;20550;-58
2021/04/29 07:36:52;;;;;;;9.77;8.77;;;;;;;14.00;67.52;98979.66;10300546;28;20087;-58
2021/04/29 07:41:53;;;;;;;9.80;8.57;;;;;;;14.08;66.84;98968.06;10296677;28;20535;-57
2021/04/29 07:46:54;;;;;;;10.65;8.82;;;;;;;14.11;66.89;98957.00;10291394;28;20054;-58
2021/04/29 07:51:56;;;;;;;9.05;7.95;;;;;;;14.11;66.68;98957.00;10285821;28;20414;-58
2021/04/29 07:56:57;;;;;;;8.07;7.22;;;;;;;14.02;65.54;98958.06;10296486;28;20120;-56
2021/04/29 08:01:58;;;;;;;9.20;7.60;;;;;;;13.96;65.45;98983.69;10293573;28;20054;-57
2021/04/29 08:06:59;;;;;;;9.52;7.90;;;;;;;14.03;66.01;98987.31;10291882;28;20038;-54
2021/04/29 08:12:01;;;;;;;8.40;7.60;;;;;;;14.14;64.18;98994.97;10292098;28;20050;-58
2021/04/29 08:17:02;;;;;;;9.70;7.63;;;;;;;14.36;64.03;98984.44;10298715;28;20104;-60
2021/04/29 08:22:04;;;;;;;8.23;7.47;;;;;;;14.72;62.66;98983.00;10298215;28;20070;-56
2021/04/29 08:27:05;;;;;;;9.27;8.38;;;;;;;14.75;62.03;98991.50;10298507;28;20123;-60
2021/04/29 08:32:07;;;;;;;8.40;7.03;;;;;;;14.82;62.05;98999.66;10297830;28;20089;-58
2021/04/29 08:37:09;;;;;;;7.53;6.82;;;;;;;14.99;61.46;99000.31;10309090;28;20054;-62
2021/04/29 08:42:15;;;;;;;8.93;8.05;;;;;;;15.30;59.56;99010.06;10309223;28;20488;-56
2021/04/29 08:47:16;;;;;;;8.73;7.95;;;;;;;15.12;58.26;99019.28;10309522;28;20062;-59
2021/04/29 08:52:18;;;;;;;8.52;7.63;;;;;;;15.17;57.22;99018.72;10300017;28;20432;-56
2021/04/29 08:57:19;;;;;;;9.25;7.82;;;;;;;15.58;57.35;99025.50;10310662;28;20050;-62
2021/04/29 09:02:37;;;;;;;9.13;8.32;;;;;;;15.52;55.06;99019.88;10307318;28;20050;-58
2021/04/29 09:07:50;;;;;;;8.40;7.60;;;;;;;15.31;56.41;99022.44;10295499;28;20046;-59
2021/04/29 09:12:52;;;;;;;8.15;7.35;;;;;;;15.14;57.45;99017.25;10311183;28;20050;-58
2021/04/29 09:18:10;;;;;;;7.50;6.72;;;;;;;15.45;55.29;99024.31;10309911;28;20553;-58
2021/04/29 09:23:17;;;;;;;9.13;7.32;;;;;;;15.41;52.06;99041.78;10306564;28;20129;-57
2021/04/29 09:28:20;;;;;;;7.78;7.07;;;;;;;15.18;55.00;99026.59;10303165;28;20137;-57
2021/04/29 09:33:29;;;;;;;8.80;7.40;;;;;;;15.28;54.75;99018.28;10298102;28;20058;-58
2021/04/29 09:38:38;;;;;;;8.70;6.53;;;;;;;16.03;52.06;99020.91;10303033;28;20046;-58
2021/04/29 09:43:57;;;;;;;7.18;6.47;;;;;;;16.36;50.41;99015.94;10305259;28;20046;-55
2021/04/29 09:48:58;;;;;;;5.85;5.35;;;;;;;17.03;47.37;99010.31;10306444;28;20053;-56
2021/04/29 09:53:59;;;;;;;6.07;5.53;;;;;;;17.27;46.25;99009.84;10308793;28;20454;-59
2021/04/29 09:59:00;;;;;;;5.22;4.65;;;;;;;17.42;45.70;99019.66;10302454;28;20123;-56
2021/04/29 10:04:01;;;;;;;5.80;5.30;;;;;;;17.27;43.15;99004.47;10297063;28;20055;-58
2021/04/29 10:09:04;;;;;;;4.68;4.28;;;;;;;17.80;42.11;99011.16;10307063;28;20515;-61
2021/04/29 10:14:07;;;;;;;5.40;4.95;;;;;;;18.09;42.49;99007.38;10303183;28;20054;-60
2021/04/29 10:19:08;;;;;;;5.37;4.37;;;;;;;18.86;38.25;98988.22;10304517;28;20062;-60
2021/04/29 10:24:10;;;;;;;3.90;3.60;;;;;;;21.32;34.72;98995.22;10308661;28;20051;-58
2021/04/29 10:29:12;;;;;;;6.35;3.70;;;;;;;25.35;28.21;98988.44;10312787;28;20038;-58
2021/04/29 10:34:13;;;;;;;4.82;4.50;;;;;;;23.92;29.04;98995.81;10307165;28;20077;-56
2021/04/29 10:39:23;;;;;;;4.22;3.17;;;;;;;21.56;30.86;98990.00;10306267;28;20061;-61
2021/04/29 10:44:24;;;;;;;3.88;3.58;;;;;;;21.49;32.79;99006.28;10298494;28;20047;-58
2021/04/29 10:49:30;;;;;;;2.85;2.65;;;;;;;19.79;34.33;99033.09;10297688;28;20051;-56
2021/04/29 10:54:31;;;;;;;2.15;1.35;;;;;;;17.22;37.71;99041.03;10303512;28;20136;-55
2021/04/29 10:59:43;;;;;;;3.10;1.10;;;;;;;15.41;41.35;99040.94;10302660;28;20113;-59
2021/04/29 11:04:45;;;;;;;2.95;1.00;;;;;;;15.40;42.50;99047.31;10305568;28;20096;-57
2021/04/29 11:10:09;;;;;;;2.35;1.60;;;;;;;15.78;43.11;99060.66;10300052;28;20532;-54
2021/04/29 11:15:34;;;;;;;2.83;1.70;;;;;;;15.82;43.75;99053.91;10304745;28;20046;-58
2021/04/29 11:20:46;;;;;;;2.80;1.92;;;;;;;16.05;44.23;99040.38;10302462;28;20058;-56
2021/04/29 11:25:48;;;;;;;4.40;2.15;;;;;;;16.49;43.46;99047.44;10302651;28;20554;-56
2021/04/29 11:30:53;;;;;;;3.28;1.77;;;;;;;18.13;40.98;99040.91;10299798;28;20096;-58
2021/04/29 11:35:54;;;;;;;2.20;1.83;;;;;;;19.05;36.65;99030.50;10303042;28;20054;-56
2021/04/29 11:40:55;;;;;;;2.63;2.42;;;;;;;19.59;35.73;99025.00;10302696;28;20046;-58
2021/04/29 11:45:56;;;;;;;4.28;2.20;;;;;;;20.50;35.82;99015.03;10304019;28;20169;-55
2021/04/29 11:51:00;;;;;;;6.43;3.30;;;;;;;19.90;34.37;99012.69;10300871;28;20161;-55
2021/04/29 11:56:06;;;;;;;4.38;3.70;;;;;;;18.90;38.33;99032.59;10297881;28;20180;-56
2021/04/29 12:01:15;;;;;;;2.95;2.20;;;;;;;19.65;35.75;99036.81;10296175;28;20483;-55
2021/04/29 12:06:16;;;;;;;3.28;2.20;;;;;;;19.31;32.85;99023.41;10316321;28;20129;-58
2021/04/29 12:11:17;;;;;;;11.27;2.67;;;;;;;19.13;32.37;99018.66;10313351;23;20248;-64
2021/04/29 12:16:24;;;;;;;4.05;2.60;;;;;;;19.55;31.66;99040.78;10263813;28;20047;-64
2021/04/29 12:21:28;;;;;;;3.05;2.78;;;;;;;20.01;31.22;99019.28;10272837;28;20437;-64
2021/04/29 12:26:37;;;;;;;3.90;2.80;;;;;;;20.23;31.70;99008.97;10271999;28;20051;-65
2021/04/29 12:31:51;;;;;;;2.75;2.13;;;;;;;20.54;31.72;99020.84;10261009;28;20058;-68
2021/04/29 12:36:59;;;;;;;3.80;2.88;;;;;;;19.75;32.21;99002.94;10263511;28;20131;-69
2021/04/29 12:42:12;;;;;;;3.38;3.05;;;;;;;19.15;33.15;99007.66;10264536;28;20038;-68
2021/04/29 12:47:23;;;;;;;5.72;3.35;;;;;;;19.45;33.61;99018.81;10267931;28;20150;-64
2021/04/29 12:52:25;;;;;;;6.13;4.50;;;;;;;19.12;32.95;99019.69;10264184;28;20046;-66
2021/04/29 12:57:28;;;;;;;5.68;3.22;;;;;;;19.24;32.90;99017.19;10260629;28;20607;-64
2021/04/29 13:02:29;;;;;;;4.43;3.00;;;;;;;18.88;33.91;99002.31;10264311;28;20059;-66
2021/04/29 13:07:31;;;;;;;3.92;2.95;;;;;;;19.22;32.29;99003.09;10262391;28;20051;-63
2021/04/29 13:12:33;;;;;;;5.13;3.22;;;;;;;19.16;31.79;98993.97;10261802;28;20589;-63
2021/04/29 13:17:40;;;;;;;5.38;3.20;;;;;;;19.28;32.20;98993.34;10263838;28;20697;-66
2021/04/29 13:22:41;;;;;;;3.33;2.97;;;;;;;19.02;32.57;98993.19;10253291;28;20039;-65
2021/04/29 13:27:44;;;;;;;3.47;2.20;;;;;;;19.22;30.94;98995.00;10255520;28;20319;-64
2021/04/29 13:32:45;;;;;;;3.72;1.88;;;;;;;19.18;30.72;98991.06;10262647;28;20047;-65
2021/04/29 13:37:47;;;;;;;3.45;2.55;;;;;;;19.01;29.62;98996.91;10251043;28;20043;-65
2021/04/29 13:42:48;;;;;;;4.20;1.70;;;;;;;19.43;29.93;98988.53;10263916;28;20054;-64
2021/04/29 13:47:48;;;;;;;1.35;1.00;;;;;;;19.72;28.78;98992.56;10264551;28;20082;-66
2021/04/29 13:52:49;;;;;;;1.50;1.27;;;;;;;19.71;28.16;98993.63;10261047;28;20057;-65
2021/04/29 13:57:50;;;;;;;3.92;1.20;;;;;;;19.43;28.42;98975.84;10263466;28;20059;-69
2021/04/29 14:02:51;;;;;;;2.38;1.13;;;;;;;19.37;28.79;98979.41;10262542;28;20074;-67
2021/04/29 14:07:53;;;;;;;1.50;0.90;;;;;;;19.27;28.37;98979.00;10261382;28;20050;-65
2021/04/29 14:12:54;;;;;;;2.47;0.90;;;;;;;19.27;28.99;98979.00;10264981;28;20061;-64
2021/04/29 14:17:55;;;;;;;1.42;0.90;;;;;;;19.26;28.15;98966.59;10267025;28;20106;-65
2021/04/29 14:22:56;;;;;;;1.80;0.70;;;;;;;19.18;27.63;98991.06;10252013;28;20456;-65
2021/04/29 14:27:57;;;;;;;3.03;0.60;;;;;;;18.95;28.01;98980.75;10255202;28;20051;-63
2021/04/29 14:32:58;;;;;;;6.60;0.70;;;;;;;18.69;26.95;98975.13;10262448;28;20102;-64
2021/04/29 14:37:59;;;;;;;3.65;0.80;;;;;;;18.66;27.25;98993.56;10276393;28;20405;-68
2021/04/29 14:43:00;;;;;;;3.80;0.73;;;;;;;18.67;27.28;98995.22;10300147;28;20094;-66
2021/04/29 14:48:08;;;;;;;2.63;0.50;;;;;;;18.87;26.65;98989.84;10273392;28;20042;-65
2021/04/29 14:53:09;;;;;;;0.90;0.50;;;;;;;19.03;26.10;99043.34;10258218;28;20472;-67
2021/04/29 14:58:10;;;;;;;2.45;0.73;;;;;;;18.79;25.70;99003.53;10261033;28;20086;-64
2021/04/29 15:03:11;;;;;;;1.20;0.60;;;;;;;18.63;26.10;99011.00;10246013;28;20106;-64
2021/04/29 15:08:13;;;;;;;1.10;0.35;;;;;;;18.53;25.79;99015.94;10259133;28;20113;-66
2021/04/29 15:13:15;;;;;;;1.83;0.50;;;;;;;18.48;25.58;99007.63;10253472;28;20459;-66
2021/04/29 15:18:15;;;;;;;0.70;0.40;;;;;;;18.35;25.33;99028.13;10247922;28;20106;-64
2021/04/29 15:23:16;;;;;;;2.58;0.73;;;;;;;18.37;26.62;99015.31;10244922;28;20121;-65
2021/04/29 15:28:17;;;;;;;3.33;0.70;;;;;;;18.49;25.84;99014.69;10253316;28;20057;-67
2021/04/29 15:33:18;;;;;;;1.58;1.13;;;;;;;18.56;27.15;99029.00;10255997;28;20554;-65
2021/04/29 15:38:19;;;;;;;4.00;2.40;;;;;;;18.48;26.53;99029.19;10249740;28;20090;-66
2021/04/29 15:43:20;;;;;;;1.80;1.45;;;;;;;18.47;27.51;99054.50;10259140;28;20077;-64
2021/04/29 15:48:21;;;;;;;2.55;1.75;;;;;;;18.35;26.20;99056.94;10255219;28;20062;-66
2021/04/29 15:53:22;;;;;;;8.40;5.28;;;;;;;18.08;31.15;99074.88;10262555;28;20042;-67
2021/04/29 15:58:24;;;;;;;7.35;6.28;;;;;;;17.75;33.46;99086.28;10262116;28;20047;-63
2021/04/29 16:03:25;;;;;;;9.75;6.43;;;;;;;17.47;34.18;99095.22;10262419;28;20054;-65
2021/04/29 16:08:28;;;;;;;7.47;6.68;;;;;;;16.92;35.48;99103.91;10282063;28;20432;-66
2021/04/29 16:13:29;;;;;;;8.33;6.90;;;;;;;17.41;35.00;99122.91;10255199;28;20074;-65
2021/04/29 16:18:30;;;;;;;8.23;7.45;;;;;;;16.92;36.35;99111.97;10261166;28;20546;-66
2021/04/29 16:23:31;;;;;;;8.73;7.70;;;;;;;16.39;37.65;99124.78;10254706;28;20050;-68
2021/04/29 16:28:33;;;;;;;7.97;7.10;;;;;;;16.30;38.34;99142.03;10257108;28;20055;-66
2021/04/29 16:33:34;;;;;;;6.85;5.65;;;;;;;16.25;38.04;99138.06;10254570;28;20096;-67
2021/04/29 16:38:35;;;;;;;5.40;4.90;;;;;;;15.83;38.50;99150.31;10256411;28;20424;-64
2021/04/29 16:43:36;;;;;;;6.90;5.03;;;;;;;15.50;39.51;99161.34;10256248;28;20047;-64
2021/04/29 16:48:38;;;;;;;4.88;3.80;;;;;;;15.24;40.24;99179.66;10265929;28;20059;-64
2021/04/29 16:53:39;;;;;;;3.97;3.25;;;;;;;15.22;40.07;99187.06;10265427;28;20075;-64
2021/04/29 16:58:40;;;;;;;3.53;2.50;;;;;;;14.81;40.54;99194.38;10260224;28;20539;-68
2021/04/29 17:03:41;;;;;;;4.88;2.75;;;;;;;14.70;40.20;99208.16;10260542;28;20054;-64
2021/04/29 17:08:42;;;;;;;4.30;2.60;;;;;;;14.40;40.13;99218.66;10262109;28;20059;-64
2021/04/29 17:13:43;;;;;;;2.40;2.20;;;;;;;14.31;40.80;99214.34;10258120;28;20065;-64
2021/04/29 17:18:44;;;;;;;2.63;2.42;;;;;;;14.25;40.86;99220.38;10265058;28;20140;-68
2021/04/29 17:23:45;;;;;;;5.82;2.42;;;;;;;13.94;41.65;99242.53;10248428;28;20066;-67
2021/04/29 17:28:46;;;;;;;3.25;1.98;;;;;;;13.85;41.63;99249.72;10250880;28;20051;-66
2021/04/29 17:33:47;;;;;;;4.25;3.15;;;;;;;13.92;42.35;99260.59;10269609;28;20047;-64
2021/04/29 17:38:48;;;;;;;3.65;2.47;;;;;;;13.98;42.10;99273.31;10273509;28;20129;-66
2021/04/29 17:43:49;;;;;;;2.20;2.00;;;;;;;13.64;42.71;99284.19;10273722;28;20050;-64
2021/04/29 17:48:51;;;;;;;3.13;2.20;;;;;;;13.92;41.76;99298.88;10270472;28;20441;-65
2021/04/29 17:53:52;;;;;;;5.03;2.70;;;;;;;13.63;42.05;99293.19;10270455;28;20070;-67
2021/04/29 17:58:53;;;;;;;2.50;2.20;;;;;;;13.18;42.73;99335.38;10271322;28;20079;-64
2021/04/29 18:03:54;;;;;;;2.00;1.90;;;;;;;13.20;42.71;99352.91;10271430;28;20121;-65
2021/04/29 18:08:55;;;;;;;3.38;2.03;;;;;;;12.92;42.91;99357.66;10288527;23;20081;-55
2021/04/29 18:13:56;;;;;;;3.00;2.30;;;;;;;13.06;42.79;99370.41;10268995;28;20074;-55
2021/04/29 18:18:57;;;;;;;2.60;2.40;;;;;;;12.68;43.46;99371.72;10253893;28;20055;-56
2021/04/29 18:23:58;;;;;;;2.53;2.22;;;;;;;12.70;43.41;99380.41;10245675;28;20581;-55
2021/04/29 18:28:59;;;;;;;4.20;2.95;;;;;;;12.78;43.54;99393.00;10228133;28;20058;-57
2021/04/29 18:34:00;;;;;;;2.75;2.55;;;;;;;12.45;43.79;99403.47;10228725;28;20088;-65
2021/04/29 18:39:05;;;;;;;4.32;2.72;;;;;;;12.65;43.77;99412.91;10230833;28;20514;-62
2021/04/29 18:44:06;;;;;;;3.20;2.63;;;;;;;12.78;43.90;99430.38;10231211;28;20050;-57
2021/04/29 18:49:09;;;;;;;2.65;2.45;;;;;;;12.69;44.96;99443.66;10233131;28;20065;-58
2021/04/29 18:54:10;;;;;;;3.47;2.78;;;;;;;12.93;43.65;99438.66;10227535;28;20121;-58
2021/04/29 18:59:11;;;;;;;3.03;2.83;;;;;;;12.84;43.30;99453.78;10228866;28;20488;-60
2021/04/29 19:04:12;;;;;;;3.60;3.30;;;;;;;12.58;43.66;99467.97;10228627;28;20055;-55
2021/04/29 19:09:13;;;;;;;4.78;3.05;;;;;;;12.60;43.72;99475.81;10231345;28;20141;-59
2021/04/29 19:14:15;;;;;;;4.05;3.75;;;;;;;12.09;43.71;99480.88;10229503;28;20063;-58
2021/04/29 19:19:19;;;;;;;4.00;3.65;;;;;;;12.11;45.37;99505.56;10227295;28;20062;-58
2021/04/29 19:24:21;;;;;;;3.80;3.50;;;;;;;12.28;44.39;99507.41;10225388;28;20055;-58
2021/04/29 19:29:22;;;;;;;4.13;3.75;;;;;;;12.33;44.19;99512.28;10222270;28;20579;-58
2021/04/29 19:34:23;;;;;;;4.43;4.03;;;;;;;12.08;43.39;99520.03;10228538;28;20093;-57
2021/04/29 19:39:25;;;;;;;4.47;4.13;;;;;;;11.54;45.20;99522.56;10225349;28;20130;-58
2021/04/29 19:44:26;;;;;;;6.43;5.13;;;;;;;11.43;45.17;99514.78;10225407;28;20050;-56
2021/04/29 19:49:27;;;;;;;4.95;4.40;;;;;;;11.80;45.14;99521.88;10213049;28;20061;-55
2021/04/29 19:54:28;;;;;;;4.72;4.35;;;;;;;11.90;44.93;99527.16;10217128;28;20152;-54
2021/04/29 19:59:29;;;;;;;4.53;4.18;;;;;;;11.87;44.95;99535.47;10212235;28;20193;-57
2021/04/29 20:04:31;;;;;;;5.72;4.32;;;;;;;11.82;48.04;99542.06;10215593;28;20090;-56
2021/04/29 20:09:31;;;;;;;4.85;4.32;;;;;;;11.82;45.97;99525.25;10236734;28;20121;-61
2021/04/29 20:14:33;;;;;;;4.97;4.57;;;;;;;11.81;47.55;99544.91;10210646;28;20057;-58
2021/04/29 20:19:36;;;;;;;5.07;4.60;;;;;;;11.91;45.81;99540.34;10221942;28;20047;-58
2021/04/29 20:24:38;;;;;;;5.07;4.68;;;;;;;11.82;46.98;99549.25;10232201;28;20073;-58
2021/04/29 20:29:39;;;;;;;4.88;4.47;;;;;;;11.69;47.02;99552.25;10224680;28;20126;-60
2021/04/29 20:34:40;;;;;;;4.88;4.50;;;;;;;11.70;46.71;99558.44;10230514;28;20141;-56
2021/04/29 20:39:41;;;;;;;4.85;4.38;;;;;;;11.72;46.79;99572.44;10229814;28;20522;-60
2021/04/29 20:44:42;;;;;;;5.63;4.70;;;;;;;11.60;46.35;99567.28;10231869;28;20055;-58
2021/04/29 20:49:43;;;;;;;5.22;4.80;;;;;;;11.74;46.43;99574.00;10232297;28;20556;-57
2021/04/29 20:54:44;;;;;;;5.40;4.90;;;;;;;11.68;46.44;99583.41;10234139;28;20057;-59
2021/04/29 20:59:46;;;;;;;5.95;5.45;;;;;;;11.67;48.01;99589.72;10226238;28;20046;-59
2021/04/29 21:04:47;;;;;;;5.68;5.18;;;;;;;11.67;46.82;99595.06;10226800;28;20055;-56
2021/04/29 21:09:48;;;;;;;5.65;5.13;;;;;;;11.64;47.07;99598.00;10235535;28;20117;-57
2021/04/29 21:14:49;;;;;;;5.55;5.05;;;;;;;11.60;47.50;99606.44;10231690;28;20117;-58
2021/04/29 21:19:50;;;;;;;6.00;5.50;;;;;;;11.50;48.31;99590.50;10230965;28;20057;-57
2021/04/29 21:24:51;;;;;;;5.18;4.63;;;;;;;11.61;48.41;99606.31;10237056;28;20062;-59
2021/04/29 21:29:52;;;;;;;5.75;5.25;;;;;;;11.58;48.74;99603.94;10222528;28;21274;-58
2021/04/29 21:34:53;;;;;;;6.18;5.57;;;;;;;11.49;47.37;99607.47;10218785;28;20189;-58
2021/04/29 21:39:54;;;;;;;5.75;5.25;;;;;;;11.26;47.03;99590.97;10231147;28;20688;-60
2021/04/29 21:44:55;;;;;;;6.22;5.63;;;;;;;11.34;47.45;99615.09;10232320;28;20054;-58
2021/04/29 21:49:56;;;;;;;6.28;4.90;;;;;;;11.45;47.73;99622.06;10228524;28;20133;-59
2021/04/29 21:54:57;;;;;;;6.03;5.43;;;;;;;11.36;48.93;99620.28;10220382;28;20129;-59
2021/04/29 21:59:58;;;;;;;6.57;6.00;;;;;;;11.26;47.75;99630.94;10218853;28;20181;-58
2021/04/29 22:04:59;;;;;;;6.35;5.78;;;;;;;11.24;47.38;99638.25;10235246;28;20046;-58
2021/04/29 22:10:01;;;;;;;8.60;6.63;;;;;;;11.23;47.79;99647.22;10236371;28;20200;-57
2021/04/29 22:15:02;;;;;;;6.40;5.80;;;;;;;10.92;47.86;99608.28;10232672;28;20042;-56
2021/04/29 22:20:05;;;;;;;7.40;6.75;;;;;;;11.12;48.09;99650.88;10229996;28;20429;-59
2021/04/29 22:25:07;;;;;;;7.15;5.95;;;;;;;11.17;48.62;99653.97;10226070;28;20051;-57
2021/04/29 22:30:11;;;;;;;6.53;5.93;;;;;;;11.02;49.73;99650.91;10231877;28;20061;-58
2021/04/29 22:35:13;;;;;;;7.07;6.37;;;;;;;10.87;49.18;99662.94;10233681;28;21123;-58
2021/04/29 22:40:15;;;;;;;6.70;6.10;;;;;;;10.98;49.49;99662.81;10234527;28;20621;-58
2021/04/29 22:45:17;;;;;;;5.80;5.30;;;;;;;10.89;48.38;99668.97;10219981;28;20074;-57
2021/04/29 22:50:19;;;;;;;5.95;5.35;;;;;;;10.86;47.42;99670.09;10229185;28;20055;-57
2021/04/29 22:55:20;;;;;;;5.65;5.15;;;;;;;10.71;46.98;99672.31;10233988;28;20058;-57
2021/04/29 23:00:21;;;;;;;6.10;5.57;;;;;;;10.70;48.34;99677.78;10251462;28;20717;-57
2021/04/29 23:05:24;;;;;;;6.22;5.50;;;;;;;10.41;47.54;99650.13;10249575;28;20057;-58
2021/04/29 23:10:25;;;;;;;7.53;6.53;;;;;;;10.60;48.76;99667.13;10251117;28;20137;-56
2021/04/29 23:15:26;;;;;;;5.95;5.45;;;;;;;10.15;48.58;99663.06;10249819;28;20117;-57
2021/04/29 23:20:27;;;;;;;6.55;5.95;;;;;;;10.26;49.99;99689.56;10256997;28;20154;-58